sensor_id;sensor_type;location;lat;lon;timestamp;temperature;humidity
2621;DHT22;1320;48.128;11.592;2022-07-04T00:00:35;23.90;91.40
2621;DHT22;1320;48.128;11.592;2022-07-04T00:03:01;23.90;91.50
2621;DHT22;1320;48.128;11.592;2022-07-04T00:05:26;23.90;91.60
2621;DHT22;1320;48.128;11.592;2022-07-04T00:07:52;23.90;91.80
2621;DHT22;1320;48.128;11.592;2022-07-04T00:10:19;24.00;91.60
2621;DHT22;1320;48.128;11.592;2022-07-04T00:12:46;24.00;91.40
2621;DHT22;1320;48.128;11.592;2022-07-04T00:15:13;24.00;91.70
2621;DHT22;1320;48.128;11.592;2022-07-04T00:17:39;24.00;92.30
2621;DHT22;1320;48.128;11.592;2022-07-04T00:20:06;24.00;92.90
2621;DHT22;1320;48.128;11.592;2022-07-04T00:22:32;23.90;93.00
2621;DHT22;1320;48.128;11.592;2022-07-04T00:24:58;23.80;93.30
2621;DHT22;1320;48.128;11.592;2022-07-04T00:27:23;23.80;93.40
2621;DHT22;1320;48.128;11.592;2022-07-04T00:29:50;23.70;93.60
2621;DHT22;1320;48.128;11.592;2022-07-04T00:32:15;23.60;93.90
2621;DHT22;1320;48.128;11.592;2022-07-04T00:34:41;23.50;94.20
2621;DHT22;1320;48.128;11.592;2022-07-04T00:37:07;23.50;94.30
2621;DHT22;1320;48.128;11.592;2022-07-04T00:39:32;23.40;94.40
2621;DHT22;1320;48.128;11.592;2022-07-04T00:41:58;23.40;94.70
2621;DHT22;1320;48.128;11.592;2022-07-04T00:44:24;23.30;95.00
2621;DHT22;1320;48.128;11.592;2022-07-04T00:46:49;23.20;95.20
2621;DHT22;1320;48.128;11.592;2022-07-04T00:49:16;23.20;95.40
2621;DHT22;1320;48.128;11.592;2022-07-04T00:51:43;23.20;95.60
2621;DHT22;1320;48.128;11.592;2022-07-04T00:54:10;23.30;95.60
2621;DHT22;1320;48.128;11.592;2022-07-04T00:56:38;23.30;95.40
2621;DHT22;1320;48.128;11.592;2022-07-04T00:59:05;23.30;95.50
2621;DHT22;1320;48.128;11.592;2022-07-04T01:01:31;23.40;95.70
2621;DHT22;1320;48.128;11.592;2022-07-04T01:03:57;23.40;95.90
2621;DHT22;1320;48.128;11.592;2022-07-04T01:06:23;23.40;96.20
2621;DHT22;1320;48.128;11.592;2022-07-04T01:08:49;23.40;96.30
2621;DHT22;1320;48.128;11.592;2022-07-04T01:11:15;23.40;97.00
2621;DHT22;1320;48.128;11.592;2022-07-04T01:13:42;23.40;96.70
2621;DHT22;1320;48.128;11.592;2022-07-04T01:16:08;23.30;96.30
2621;DHT22;1320;48.128;11.592;2022-07-04T01:18:34;23.30;96.60
2621;DHT22;1320;48.128;11.592;2022-07-04T01:21:00;23.20;96.60
2621;DHT22;1320;48.128;11.592;2022-07-04T01:23:26;23.20;96.60
2621;DHT22;1320;48.128;11.592;2022-07-04T01:25:51;23.10;96.60
2621;DHT22;1320;48.128;11.592;2022-07-04T01:28:24;23.00;96.50
2621;DHT22;1320;48.128;11.592;2022-07-04T01:30:50;23.00;96.60
2621;DHT22;1320;48.128;11.592;2022-07-04T01:33:16;23.00;96.30
2621;DHT22;1320;48.128;11.592;2022-07-04T01:35:46;23.00;96.30
2621;DHT22;1320;48.128;11.592;2022-07-04T01:38:12;23.10;95.80
2621;DHT22;1320;48.128;11.592;2022-07-04T01:40:38;23.10;95.60
2621;DHT22;1320;48.128;11.592;2022-07-04T01:43:04;23.20;95.20
2621;DHT22;1320;48.128;11.592;2022-07-04T01:45:30;23.20;95.10
2621;DHT22;1320;48.128;11.592;2022-07-04T01:48:00;23.20;94.90
2621;DHT22;1320;48.128;11.592;2022-07-04T01:50:25;23.30;94.90
2621;DHT22;1320;48.128;11.592;2022-07-04T01:52:51;23.30;94.80
2621;DHT22;1320;48.128;11.592;2022-07-04T01:55:17;23.30;94.60
2621;DHT22;1320;48.128;11.592;2022-07-04T01:57:42;23.40;94.50
2621;DHT22;1320;48.128;11.592;2022-07-04T02:00:09;23.40;94.80
2621;DHT22;1320;48.128;11.592;2022-07-04T02:02:55;23.40;94.30
2621;DHT22;1320;48.128;11.592;2022-07-04T02:05:21;23.50;94.20
2621;DHT22;1320;48.128;11.592;2022-07-04T02:07:50;23.50;94.20
2621;DHT22;1320;48.128;11.592;2022-07-04T02:10:17;23.50;94.20
2621;DHT22;1320;48.128;11.592;2022-07-04T02:12:43;23.50;94.10
2621;DHT22;1320;48.128;11.592;2022-07-04T02:15:34;23.60;94.10
2621;DHT22;1320;48.128;11.592;2022-07-04T02:18:02;23.60;94.10
2621;DHT22;1320;48.128;11.592;2022-07-04T02:20:28;23.60;94.20
2621;DHT22;1320;48.128;11.592;2022-07-04T02:22:54;23.60;94.30
2621;DHT22;1320;48.128;11.592;2022-07-04T02:25:20;23.60;94.30
2621;DHT22;1320;48.128;11.592;2022-07-04T02:27:46;23.60;94.40
2621;DHT22;1320;48.128;11.592;2022-07-04T02:30:12;23.50;94.40
2621;DHT22;1320;48.128;11.592;2022-07-04T02:32:38;23.50;94.50
2621;DHT22;1320;48.128;11.592;2022-07-04T02:35:04;23.50;94.50
2621;DHT22;1320;48.128;11.592;2022-07-04T02:37:30;23.50;94.60
2621;DHT22;1320;48.128;11.592;2022-07-04T02:39:56;23.50;94.70
2621;DHT22;1320;48.128;11.592;2022-07-04T02:42:21;23.50;94.80
2621;DHT22;1320;48.128;11.592;2022-07-04T02:44:47;23.50;94.80
2621;DHT22;1320;48.128;11.592;2022-07-04T02:47:14;23.50;94.90
2621;DHT22;1320;48.128;11.592;2022-07-04T02:49:40;23.40;94.90
2621;DHT22;1320;48.128;11.592;2022-07-04T02:52:06;23.40;95.10
2621;DHT22;1320;48.128;11.592;2022-07-04T02:54:31;23.40;95.10
2621;DHT22;1320;48.128;11.592;2022-07-04T02:56:57;23.40;95.20
2621;DHT22;1320;48.128;11.592;2022-07-04T02:59:23;23.40;95.20
2621;DHT22;1320;48.128;11.592;2022-07-04T03:01:48;23.40;95.40
2621;DHT22;1320;48.128;11.592;2022-07-04T03:04:14;23.30;95.40
2621;DHT22;1320;48.128;11.592;2022-07-04T03:06:40;23.30;95.50
2621;DHT22;1320;48.128;11.592;2022-07-04T03:09:06;23.30;95.50
2621;DHT22;1320;48.128;11.592;2022-07-04T03:11:32;23.30;95.60
2621;DHT22;1320;48.128;11.592;2022-07-04T03:13:58;23.30;95.70
2621;DHT22;1320;48.128;11.592;2022-07-04T03:16:23;23.30;95.80
2621;DHT22;1320;48.128;11.592;2022-07-04T03:18:49;23.20;95.80
2621;DHT22;1320;48.128;11.592;2022-07-04T03:21:15;23.20;95.90
2621;DHT22;1320;48.128;11.592;2022-07-04T03:23:41;23.20;95.90
2621;DHT22;1320;48.128;11.592;2022-07-04T03:26:06;23.20;96.00
2621;DHT22;1320;48.128;11.592;2022-07-04T03:28:32;23.10;96.00
2621;DHT22;1320;48.128;11.592;2022-07-04T03:30:58;23.20;96.10
2621;DHT22;1320;48.128;11.592;2022-07-04T03:33:24;23.20;96.10
2621;DHT22;1320;48.128;11.592;2022-07-04T03:35:50;23.10;96.10
2621;DHT22;1320;48.128;11.592;2022-07-04T03:38:15;23.10;96.20
2621;DHT22;1320;48.128;11.592;2022-07-04T03:40:41;23.10;96.10
2621;DHT22;1320;48.128;11.592;2022-07-04T03:43:07;23.10;96.30
2621;DHT22;1320;48.128;11.592;2022-07-04T03:45:33;23.10;96.30
2621;DHT22;1320;48.128;11.592;2022-07-04T03:47:59;23.10;96.40
2621;DHT22;1320;48.128;11.592;2022-07-04T03:50:27;23.10;96.40
2621;DHT22;1320;48.128;11.592;2022-07-04T03:52:53;23.00;96.40
2621;DHT22;1320;48.128;11.592;2022-07-04T03:55:19;23.10;96.60
2621;DHT22;1320;48.128;11.592;2022-07-04T03:57:44;23.10;96.60
2621;DHT22;1320;48.128;11.592;2022-07-04T04:00:10;23.10;96.60
2621;DHT22;1320;48.128;11.592;2022-07-04T04:02:37;23.10;96.60
2621;DHT22;1320;48.128;11.592;2022-07-04T04:05:04;23.10;96.70
2621;DHT22;1320;48.128;11.592;2022-07-04T04:07:48;23.10;96.80
2621;DHT22;1320;48.128;11.592;2022-07-04T04:10:14;23.10;96.80
2621;DHT22;1320;48.128;11.592;2022-07-04T04:12:40;23.10;96.90
2621;DHT22;1320;48.128;11.592;2022-07-04T04:15:06;23.10;97.20
2621;DHT22;1320;48.128;11.592;2022-07-04T04:17:31;23.10;97.30
2621;DHT22;1320;48.128;11.592;2022-07-04T04:19:57;23.10;97.10
2621;DHT22;1320;48.128;11.592;2022-07-04T04:22:23;23.10;97.20
2621;DHT22;1320;48.128;11.592;2022-07-04T04:24:49;23.10;97.10
2621;DHT22;1320;48.128;11.592;2022-07-04T04:27:14;23.10;97.20
2621;DHT22;1320;48.128;11.592;2022-07-04T04:29:40;23.10;97.30
2621;DHT22;1320;48.128;11.592;2022-07-04T04:32:06;23.10;97.40
2621;DHT22;1320;48.128;11.592;2022-07-04T04:34:32;23.10;97.30
2621;DHT22;1320;48.128;11.592;2022-07-04T04:36:59;23.10;97.30
2621;DHT22;1320;48.128;11.592;2022-07-04T04:39:25;23.10;97.30
2621;DHT22;1320;48.128;11.592;2022-07-04T04:41:50;23.20;97.40
2621;DHT22;1320;48.128;11.592;2022-07-04T04:44:16;23.20;97.40
2621;DHT22;1320;48.128;11.592;2022-07-04T04:46:42;23.20;97.40
2621;DHT22;1320;48.128;11.592;2022-07-04T04:49:07;23.20;97.30
2621;DHT22;1320;48.128;11.592;2022-07-04T04:51:33;23.30;97.30
2621;DHT22;1320;48.128;11.592;2022-07-04T04:53:59;23.30;97.40
2621;DHT22;1320;48.128;11.592;2022-07-04T04:56:24;23.40;97.40
2621;DHT22;1320;48.128;11.592;2022-07-04T04:58:50;23.50;97.30
2621;DHT22;1320;48.128;11.592;2022-07-04T05:01:16;23.60;97.30
2621;DHT22;1320;48.128;11.592;2022-07-04T05:03:42;23.60;97.30
2621;DHT22;1320;48.128;11.592;2022-07-04T05:06:08;23.60;97.60
2621;DHT22;1320;48.128;11.592;2022-07-04T05:08:33;23.60;97.60
2621;DHT22;1320;48.128;11.592;2022-07-04T05:10:59;23.70;97.60
2621;DHT22;1320;48.128;11.592;2022-07-04T05:13:25;23.70;97.40
2621;DHT22;1320;48.128;11.592;2022-07-04T05:15:50;23.70;97.50
2621;DHT22;1320;48.128;11.592;2022-07-04T05:18:17;23.70;97.50
2621;DHT22;1320;48.128;11.592;2022-07-04T05:20:42;23.70;97.40
2621;DHT22;1320;48.128;11.592;2022-07-04T05:23:08;23.60;97.30
2621;DHT22;1320;48.128;11.592;2022-07-04T05:25:34;23.50;97.60
2621;DHT22;1320;48.128;11.592;2022-07-04T05:27:59;23.50;97.70
2621;DHT22;1320;48.128;11.592;2022-07-04T05:30:26;23.40;98.10
2621;DHT22;1320;48.128;11.592;2022-07-04T05:32:52;23.30;98.20
2621;DHT22;1320;48.128;11.592;2022-07-04T05:35:17;23.30;98.40
2621;DHT22;1320;48.128;11.592;2022-07-04T05:37:43;23.30;98.70
2621;DHT22;1320;48.128;11.592;2022-07-04T05:40:10;23.20;98.90
2621;DHT22;1320;48.128;11.592;2022-07-04T05:42:36;23.20;99.30
2621;DHT22;1320;48.128;11.592;2022-07-04T05:45:02;23.20;99.60
2621;DHT22;1320;48.128;11.592;2022-07-04T05:47:28;23.20;99.80
2621;DHT22;1320;48.128;11.592;2022-07-04T05:49:53;23.20;99.90
2621;DHT22;1320;48.128;11.592;2022-07-04T05:52:19;23.20;99.90
2621;DHT22;1320;48.128;11.592;2022-07-04T05:54:45;23.30;99.90
2621;DHT22;1320;48.128;11.592;2022-07-04T05:57:10;23.30;99.90
2621;DHT22;1320;48.128;11.592;2022-07-04T05:59:36;23.20;99.90
2621;DHT22;1320;48.128;11.592;2022-07-04T06:02:02;23.10;99.90
2621;DHT22;1320;48.128;11.592;2022-07-04T06:04:28;23.00;99.90
2621;DHT22;1320;48.128;11.592;2022-07-04T06:06:54;23.00;99.90
2621;DHT22;1320;48.128;11.592;2022-07-04T06:09:19;23.00;99.90
2621;DHT22;1320;48.128;11.592;2022-07-04T06:11:45;23.00;99.90
2621;DHT22;1320;48.128;11.592;2022-07-04T06:14:11;23.00;99.90
2621;DHT22;1320;48.128;11.592;2022-07-04T06:16:37;23.00;99.90
2621;DHT22;1320;48.128;11.592;2022-07-04T06:19:02;22.90;99.90
2621;DHT22;1320;48.128;11.592;2022-07-04T06:21:28;22.90;99.90
2621;DHT22;1320;48.128;11.592;2022-07-04T06:23:54;22.90;99.90
2621;DHT22;1320;48.128;11.592;2022-07-04T06:26:19;22.90;99.90
2621;DHT22;1320;48.128;11.592;2022-07-04T06:28:45;22.90;99.90
2621;DHT22;1320;48.128;11.592;2022-07-04T06:31:11;22.90;99.90
2621;DHT22;1320;48.128;11.592;2022-07-04T06:33:37;23.00;99.90
2621;DHT22;1320;48.128;11.592;2022-07-04T06:36:23;23.00;99.90
2621;DHT22;1320;48.128;11.592;2022-07-04T06:38:49;23.00;99.90
2621;DHT22;1320;48.128;11.592;2022-07-04T06:41:15;23.00;99.90
2621;DHT22;1320;48.128;11.592;2022-07-04T06:43:40;23.00;99.90
2621;DHT22;1320;48.128;11.592;2022-07-04T06:46:06;22.90;99.90
2621;DHT22;1320;48.128;11.592;2022-07-04T06:48:32;22.90;99.90
2621;DHT22;1320;48.128;11.592;2022-07-04T06:50:58;22.80;99.90
2621;DHT22;1320;48.128;11.592;2022-07-04T06:53:23;22.70;99.90
2621;DHT22;1320;48.128;11.592;2022-07-04T06:55:49;22.70;99.90
2621;DHT22;1320;48.128;11.592;2022-07-04T06:58:15;22.70;99.90
2621;DHT22;1320;48.128;11.592;2022-07-04T07:00:40;22.70;99.90
2621;DHT22;1320;48.128;11.592;2022-07-04T07:03:09;22.70;99.90
2621;DHT22;1320;48.128;11.592;2022-07-04T07:05:35;22.60;99.90
2621;DHT22;1320;48.128;11.592;2022-07-04T07:08:03;22.50;99.90
2621;DHT22;1320;48.128;11.592;2022-07-04T07:10:29;22.50;99.90
2621;DHT22;1320;48.128;11.592;2022-07-04T07:12:58;22.50;99.90
2621;DHT22;1320;48.128;11.592;2022-07-04T07:15:23;22.50;99.90
2621;DHT22;1320;48.128;11.592;2022-07-04T07:17:49;22.50;99.90
2621;DHT22;1320;48.128;11.592;2022-07-04T07:20:15;22.50;99.90
2621;DHT22;1320;48.128;11.592;2022-07-04T07:22:41;22.50;99.90
2621;DHT22;1320;48.128;11.592;2022-07-04T07:25:09;22.50;99.90
2621;DHT22;1320;48.128;11.592;2022-07-04T07:27:35;22.40;99.90
2621;DHT22;1320;48.128;11.592;2022-07-04T07:30:00;22.40;99.90
2621;DHT22;1320;48.128;11.592;2022-07-04T07:32:26;22.40;99.90
2621;DHT22;1320;48.128;11.592;2022-07-04T07:34:52;22.40;99.90
2621;DHT22;1320;48.128;11.592;2022-07-04T07:37:17;22.40;99.90
2621;DHT22;1320;48.128;11.592;2022-07-04T07:39:43;22.30;99.90
2621;DHT22;1320;48.128;11.592;2022-07-04T07:42:09;22.20;99.90
2621;DHT22;1320;48.128;11.592;2022-07-04T07:44:35;22.20;99.90
2621;DHT22;1320;48.128;11.592;2022-07-04T07:47:00;22.20;99.90
2621;DHT22;1320;48.128;11.592;2022-07-04T07:49:26;22.20;99.90
2621;DHT22;1320;48.128;11.592;2022-07-04T07:51:52;22.20;99.90
2621;DHT22;1320;48.128;11.592;2022-07-04T07:54:17;22.30;99.90
2621;DHT22;1320;48.128;11.592;2022-07-04T07:56:44;22.40;99.90
2621;DHT22;1320;48.128;11.592;2022-07-04T07:59:09;22.50;99.90
2621;DHT22;1320;48.128;11.592;2022-07-04T08:01:35;22.70;99.90
2621;DHT22;1320;48.128;11.592;2022-07-04T08:04:01;22.80;99.90
2621;DHT22;1320;48.128;11.592;2022-07-04T08:06:45;23.00;99.90
2621;DHT22;1320;48.128;11.592;2022-07-04T08:09:11;23.10;99.90
2621;DHT22;1320;48.128;11.592;2022-07-04T08:11:40;23.30;99.90
2621;DHT22;1320;48.128;11.592;2022-07-04T08:14:06;23.40;99.90
2621;DHT22;1320;48.128;11.592;2022-07-04T08:16:33;23.50;99.90
2621;DHT22;1320;48.128;11.592;2022-07-04T08:18:59;23.70;99.90
2621;DHT22;1320;48.128;11.592;2022-07-04T08:21:25;23.70;99.90
2621;DHT22;1320;48.128;11.592;2022-07-04T08:23:51;23.80;99.90
2621;DHT22;1320;48.128;11.592;2022-07-04T08:26:16;23.80;99.90
2621;DHT22;1320;48.128;11.592;2022-07-04T08:28:42;24.00;99.90
2621;DHT22;1320;48.128;11.592;2022-07-04T08:31:08;24.10;99.90
2621;DHT22;1320;48.128;11.592;2022-07-04T08:33:33;24.40;99.90
2621;DHT22;1320;48.128;11.592;2022-07-04T08:35:59;24.50;99.90
2621;DHT22;1320;48.128;11.592;2022-07-04T08:38:25;24.60;99.90
2621;DHT22;1320;48.128;11.592;2022-07-04T08:40:56;24.80;99.90
2621;DHT22;1320;48.128;11.592;2022-07-04T08:43:23;25.00;99.90
2621;DHT22;1320;48.128;11.592;2022-07-04T08:45:49;25.20;99.90
2621;DHT22;1320;48.128;11.592;2022-07-04T08:48:18;25.30;99.90
2621;DHT22;1320;48.128;11.592;2022-07-04T08:50:55;25.40;99.90
2621;DHT22;1320;48.128;11.592;2022-07-04T08:53:25;25.50;99.90
2621;DHT22;1320;48.128;11.592;2022-07-04T08:55:52;25.60;99.60
2621;DHT22;1320;48.128;11.592;2022-07-04T08:58:38;25.70;99.50
2621;DHT22;1320;48.128;11.592;2022-07-04T09:01:06;26.00;99.10
2621;DHT22;1320;48.128;11.592;2022-07-04T09:03:33;26.40;97.80
2621;DHT22;1320;48.128;11.592;2022-07-04T09:05:59;26.80;97.60
2621;DHT22;1320;48.128;11.592;2022-07-04T09:08:25;27.20;96.70
2621;DHT22;1320;48.128;11.592;2022-07-04T09:10:52;27.70;96.00
2621;DHT22;1320;48.128;11.592;2022-07-04T09:13:18;28.30;95.30
2621;DHT22;1320;48.128;11.592;2022-07-04T09:15:46;28.70;94.30
2621;DHT22;1320;48.128;11.592;2022-07-04T09:18:35;28.80;93.10
2621;DHT22;1320;48.128;11.592;2022-07-04T09:21:06;29.00;92.80
2621;DHT22;1320;48.128;11.592;2022-07-04T09:23:42;29.30;93.00
2621;DHT22;1320;48.128;11.592;2022-07-04T09:26:21;29.60;91.80
2621;DHT22;1320;48.128;11.592;2022-07-04T09:28:51;29.90;91.40
2621;DHT22;1320;48.128;11.592;2022-07-04T09:31:20;30.20;90.50
2621;DHT22;1320;48.128;11.592;2022-07-04T09:33:58;30.30;90.40
2621;DHT22;1320;48.128;11.592;2022-07-04T09:36:25;30.50;90.10
2621;DHT22;1320;48.128;11.592;2022-07-04T09:42:01;30.50;87.80
2621;DHT22;1320;48.128;11.592;2022-07-04T09:47:22;30.80;85.80
2621;DHT22;1320;48.128;11.592;2022-07-04T09:52:27;31.00;86.40
2621;DHT22;1320;48.128;11.592;2022-07-04T09:54:57;31.10;86.10
2621;DHT22;1320;48.128;11.592;2022-07-04T09:57:25;31.20;84.10
2621;DHT22;1320;48.128;11.592;2022-07-04T09:59:51;31.30;83.20
2621;DHT22;1320;48.128;11.592;2022-07-04T10:02:16;31.20;84.50
2621;DHT22;1320;48.128;11.592;2022-07-04T10:07:35;31.20;84.70
2621;DHT22;1320;48.128;11.592;2022-07-04T10:10:24;31.10;85.00
2621;DHT22;1320;48.128;11.592;2022-07-04T10:12:50;31.10;84.20
2621;DHT22;1320;48.128;11.592;2022-07-04T10:15:18;31.00;82.60
2621;DHT22;1320;48.128;11.592;2022-07-04T10:17:44;30.90;82.50
2621;DHT22;1320;48.128;11.592;2022-07-04T10:20:11;30.90;82.10
2621;DHT22;1320;48.128;11.592;2022-07-04T10:22:37;30.70;82.10
2621;DHT22;1320;48.128;11.592;2022-07-04T10:25:07;30.50;82.70
2621;DHT22;1320;48.128;11.592;2022-07-04T10:27:34;30.30;83.80
2621;DHT22;1320;48.128;11.592;2022-07-04T10:30:00;30.20;84.30
2621;DHT22;1320;48.128;11.592;2022-07-04T10:32:28;29.90;84.20
2621;DHT22;1320;48.128;11.592;2022-07-04T10:34:53;29.70;84.70
2621;DHT22;1320;48.128;11.592;2022-07-04T10:37:19;29.60;85.20
2621;DHT22;1320;48.128;11.592;2022-07-04T10:39:46;29.40;84.70
2621;DHT22;1320;48.128;11.592;2022-07-04T10:42:25;29.20;84.60
2621;DHT22;1320;48.128;11.592;2022-07-04T10:44:52;29.10;83.90
2621;DHT22;1320;48.128;11.592;2022-07-04T10:47:25;28.80;85.60
2621;DHT22;1320;48.128;11.592;2022-07-04T10:49:54;28.70;85.40
2621;DHT22;1320;48.128;11.592;2022-07-04T10:52:20;28.50;85.20
2621;DHT22;1320;48.128;11.592;2022-07-04T10:54:46;28.40;85.20
2621;DHT22;1320;48.128;11.592;2022-07-04T10:57:17;28.30;85.90
2621;DHT22;1320;48.128;11.592;2022-07-04T11:00:17;28.30;85.90
2621;DHT22;1320;48.128;11.592;2022-07-04T11:02:38;28.30;86.80
2621;DHT22;1320;48.128;11.592;2022-07-04T11:05:05;28.30;86.00
2621;DHT22;1320;48.128;11.592;2022-07-04T11:20:26;28.40;87.60
2621;DHT22;1320;48.128;11.592;2022-07-04T11:23:02;28.40;87.80
2621;DHT22;1320;48.128;11.592;2022-07-04T11:25:28;28.40;87.50
2621;DHT22;1320;48.128;11.592;2022-07-04T11:27:54;28.50;87.20
2621;DHT22;1320;48.128;11.592;2022-07-04T11:30:20;28.70;86.10
2621;DHT22;1320;48.128;11.592;2022-07-04T11:32:45;28.80;87.20
2621;DHT22;1320;48.128;11.592;2022-07-04T11:35:11;28.90;87.40
2621;DHT22;1320;48.128;11.592;2022-07-04T11:37:37;29.10;86.80
2621;DHT22;1320;48.128;11.592;2022-07-04T11:40:03;29.30;87.30
2621;DHT22;1320;48.128;11.592;2022-07-04T11:43:07;29.40;86.10
2621;DHT22;1320;48.128;11.592;2022-07-04T11:46:10;29.50;86.40
2621;DHT22;1320;48.128;11.592;2022-07-04T11:48:37;29.60;87.20
2621;DHT22;1320;48.128;11.592;2022-07-04T11:51:03;29.70;86.60
2621;DHT22;1320;48.128;11.592;2022-07-04T11:53:40;29.90;86.40
2621;DHT22;1320;48.128;11.592;2022-07-04T11:56:06;30.00;85.70
2621;DHT22;1320;48.128;11.592;2022-07-04T11:58:40;30.30;83.70
2621;DHT22;1320;48.128;11.592;2022-07-04T12:01:06;30.50;82.00
2621;DHT22;1320;48.128;11.592;2022-07-04T12:03:34;30.60;80.10
2621;DHT22;1320;48.128;11.592;2022-07-04T12:06:03;30.70;80.00
2621;DHT22;1320;48.128;11.592;2022-07-04T12:08:31;30.80;80.30
2621;DHT22;1320;48.128;11.592;2022-07-04T12:10:57;30.80;79.70
2621;DHT22;1320;48.128;11.592;2022-07-04T12:13:22;30.80;81.90
2621;DHT22;1320;48.128;11.592;2022-07-04T12:15:50;30.80;81.50
2621;DHT22;1320;48.128;11.592;2022-07-04T12:18:21;30.90;80.70
2621;DHT22;1320;48.128;11.592;2022-07-04T12:20:49;30.90;79.60
2621;DHT22;1320;48.128;11.592;2022-07-04T12:23:15;30.90;79.60
2621;DHT22;1320;48.128;11.592;2022-07-04T12:25:45;31.00;81.70
2621;DHT22;1320;48.128;11.592;2022-07-04T12:28:12;31.10;80.00
2621;DHT22;1320;48.128;11.592;2022-07-04T12:30:54;31.10;79.60
2621;DHT22;1320;48.128;11.592;2022-07-04T12:33:22;31.10;80.90
2621;DHT22;1320;48.128;11.592;2022-07-04T12:35:49;31.20;79.60
2621;DHT22;1320;48.128;11.592;2022-07-04T12:43:17;31.50;80.20
2621;DHT22;1320;48.128;11.592;2022-07-04T12:45:51;31.40;77.80
2621;DHT22;1320;48.128;11.592;2022-07-04T12:48:37;31.50;77.50
2621;DHT22;1320;48.128;11.592;2022-07-04T12:51:16;31.40;79.90
2621;DHT22;1320;48.128;11.592;2022-07-04T12:53:44;31.40;76.90
2621;DHT22;1320;48.128;11.592;2022-07-04T12:56:30;31.40;77.70
2621;DHT22;1320;48.128;11.592;2022-07-04T12:58:57;31.30;78.20
2621;DHT22;1320;48.128;11.592;2022-07-04T13:01:23;31.20;78.60
2621;DHT22;1320;48.128;11.592;2022-07-04T13:03:49;31.20;78.00
2621;DHT22;1320;48.128;11.592;2022-07-04T13:06:14;31.20;78.00
2621;DHT22;1320;48.128;11.592;2022-07-04T13:08:40;31.30;78.30
2621;DHT22;1320;48.128;11.592;2022-07-04T13:11:06;31.40;78.20
2621;DHT22;1320;48.128;11.592;2022-07-04T13:13:50;31.40;78.40
2621;DHT22;1320;48.128;11.592;2022-07-04T13:16:15;31.40;80.00
2621;DHT22;1320;48.128;11.592;2022-07-04T13:18:41;31.40;80.20
2621;DHT22;1320;48.128;11.592;2022-07-04T13:21:07;31.40;81.00
2621;DHT22;1320;48.128;11.592;2022-07-04T13:23:32;31.40;79.80
2621;DHT22;1320;48.128;11.592;2022-07-04T13:25:58;31.50;80.50
2621;DHT22;1320;48.128;11.592;2022-07-04T13:28:24;31.70;79.20
2621;DHT22;1320;48.128;11.592;2022-07-04T13:30:49;31.90;80.10
2621;DHT22;1320;48.128;11.592;2022-07-04T13:33:15;32.10;79.80
2621;DHT22;1320;48.128;11.592;2022-07-04T13:35:41;32.30;78.90
2621;DHT22;1320;48.128;11.592;2022-07-04T13:38:06;32.50;76.60
2621;DHT22;1320;48.128;11.592;2022-07-04T13:40:32;32.60;74.90
2621;DHT22;1320;48.128;11.592;2022-07-04T13:42:58;32.80;74.70
2621;DHT22;1320;48.128;11.592;2022-07-04T13:45:25;32.80;74.70
2621;DHT22;1320;48.128;11.592;2022-07-04T13:47:51;32.90;75.20
2621;DHT22;1320;48.128;11.592;2022-07-04T13:50:17;33.10;75.40
2621;DHT22;1320;48.128;11.592;2022-07-04T13:52:44;33.20;76.00
2621;DHT22;1320;48.128;11.592;2022-07-04T13:55:10;33.20;77.30
2621;DHT22;1320;48.128;11.592;2022-07-04T13:57:36;33.20;76.70
2621;DHT22;1320;48.128;11.592;2022-07-04T14:00:03;33.20;75.80
2621;DHT22;1320;48.128;11.592;2022-07-04T14:02:29;33.00;76.20
2621;DHT22;1320;48.128;11.592;2022-07-04T14:04:55;32.80;75.80
2621;DHT22;1320;48.128;11.592;2022-07-04T14:07:21;32.60;76.50
2621;DHT22;1320;48.128;11.592;2022-07-04T14:09:47;32.40;75.40
2621;DHT22;1320;48.128;11.592;2022-07-04T14:12:13;32.30;75.50
2621;DHT22;1320;48.128;11.592;2022-07-04T14:14:38;32.20;75.90
2621;DHT22;1320;48.128;11.592;2022-07-04T14:17:04;32.10;77.30
2621;DHT22;1320;48.128;11.592;2022-07-04T14:19:30;32.10;78.50
2621;DHT22;1320;48.128;11.592;2022-07-04T14:21:55;32.00;78.00
2621;DHT22;1320;48.128;11.592;2022-07-04T14:24:21;31.80;78.40
2621;DHT22;1320;48.128;11.592;2022-07-04T14:26:47;31.80;78.90
2621;DHT22;1320;48.128;11.592;2022-07-04T14:29:12;31.90;78.20
2621;DHT22;1320;48.128;11.592;2022-07-04T14:31:39;32.00;77.50
2621;DHT22;1320;48.128;11.592;2022-07-04T14:34:05;32.10;77.60
2621;DHT22;1320;48.128;11.592;2022-07-04T14:36:32;32.20;76.90
2621;DHT22;1320;48.128;11.592;2022-07-04T14:38:58;32.30;76.00
2621;DHT22;1320;48.128;11.592;2022-07-04T14:41:24;32.40;75.40
2621;DHT22;1320;48.128;11.592;2022-07-04T14:43:52;32.40;77.20
2621;DHT22;1320;48.128;11.592;2022-07-04T14:46:19;32.40;76.80
2621;DHT22;1320;48.128;11.592;2022-07-04T14:48:45;32.30;76.50
2621;DHT22;1320;48.128;11.592;2022-07-04T14:51:11;32.30;76.80
2621;DHT22;1320;48.128;11.592;2022-07-04T14:53:40;32.10;77.00
2621;DHT22;1320;48.128;11.592;2022-07-04T14:56:05;32.30;77.50
2621;DHT22;1320;48.128;11.592;2022-07-04T14:58:31;32.40;77.10
2621;DHT22;1320;48.128;11.592;2022-07-04T15:00:57;32.80;76.30
2621;DHT22;1320;48.128;11.592;2022-07-04T15:03:23;33.00;75.50
2621;DHT22;1320;48.128;11.592;2022-07-04T15:05:48;33.10;75.60
2621;DHT22;1320;48.128;11.592;2022-07-04T15:08:14;33.10;74.90
2621;DHT22;1320;48.128;11.592;2022-07-04T15:10:40;33.00;75.00
2621;DHT22;1320;48.128;11.592;2022-07-04T15:13:06;32.90;74.90
2621;DHT22;1320;48.128;11.592;2022-07-04T15:15:32;32.80;75.20
2621;DHT22;1320;48.128;11.592;2022-07-04T15:17:58;32.80;75.40
2621;DHT22;1320;48.128;11.592;2022-07-04T15:20:24;32.60;75.40
2621;DHT22;1320;48.128;11.592;2022-07-04T15:23:08;32.40;75.90
2621;DHT22;1320;48.128;11.592;2022-07-04T15:25:53;32.20;75.60
2621;DHT22;1320;48.128;11.592;2022-07-04T15:28:18;32.10;75.30
2621;DHT22;1320;48.128;11.592;2022-07-04T15:30:44;32.10;76.10
2621;DHT22;1320;48.128;11.592;2022-07-04T15:33:10;32.00;76.80
2621;DHT22;1320;48.128;11.592;2022-07-04T15:35:41;31.90;76.20
2621;DHT22;1320;48.128;11.592;2022-07-04T15:38:07;31.90;76.50
2621;DHT22;1320;48.128;11.592;2022-07-04T15:40:33;31.80;77.50
2621;DHT22;1320;48.128;11.592;2022-07-04T15:42:59;31.70;76.60
2621;DHT22;1320;48.128;11.592;2022-07-04T15:45:24;31.60;76.60
2621;DHT22;1320;48.128;11.592;2022-07-04T15:47:50;31.50;76.70
2621;DHT22;1320;48.128;11.592;2022-07-04T15:50:16;31.40;77.10
2621;DHT22;1320;48.128;11.592;2022-07-04T15:52:41;31.40;77.70
2621;DHT22;1320;48.128;11.592;2022-07-04T15:55:07;31.50;77.30
2621;DHT22;1320;48.128;11.592;2022-07-04T15:57:33;31.60;77.60
2621;DHT22;1320;48.128;11.592;2022-07-04T15:59:59;31.60;77.50
2621;DHT22;1320;48.128;11.592;2022-07-04T16:02:24;31.70;77.60
2621;DHT22;1320;48.128;11.592;2022-07-04T16:04:50;31.90;77.60
2621;DHT22;1320;48.128;11.592;2022-07-04T16:07:16;32.10;77.30
2621;DHT22;1320;48.128;11.592;2022-07-04T16:09:44;32.50;76.40
2621;DHT22;1320;48.128;11.592;2022-07-04T16:12:10;32.70;75.90
2621;DHT22;1320;48.128;11.592;2022-07-04T16:14:36;32.80;75.60